Other Surface Observations
Issued by NWS Missoula, MT

Home | Current Version | Previous Version | Text Only | Print | Product List | Glossary On
Versions: 1 2 3 4 5 6 7 8 9 10 11 12 13 14 15 16 17 18 19 20 21 22 23 24 25 26 27 28 29 30 31 32 33 34 35 36 37 38 39 40 41 42 43 44 45 46 47 48 49 50
000
SXUS55 KMSO 020344
OSOMSO
MONTANA AWOS SUMMARY
NATIONAL WEATHER SERVICE MISSOULA MT
843 PM MST WED APR 1 2015

Montana AWOS Reports

ROUNDUP     |KRPX 020335Z AUTO 23011KT 40SM 06/M13 A2981 RMK AO1 T00561132
MALTA       |KM75 020335Z AUTO 26016G22KT 40SM 05/M05 A2975 RMK AO1 T00501049
LAUREL      |K6S8 020335Z AUTO 25013G20KT 40SM 05/M10 A2991 RMK AO1 T00501099
TWIN BRIDGES|K7S1 020335Z AUTO 00000KT 40SM 01/M14 A3000 RMK AO1 T00061138




USA.gov is the U.S. government's official web portal to all federal, state and local government web resources and services.